Погода Заточинона 2 недели

Смоленская область, Россия

24 июля-06 августа
  • 24июля
    Сегодня
    +12°
    +26°
    Практически безоблачно
    ВремяПогодаТемператураВлажностьДавлениеВетер, м/сВероятность осадков
    00:00Ясно и безоблачно+14°C75 %745 мм0.1 м/с2 %
    03:00Ясно и безоблачно+11°C81 %745 мм0.0 м/с2 %
    06:00Ясно и безоблачно+12°C81 %745 мм0.0 м/с2 %
    09:00Ясно и безоблачно+20°C64 %745 мм0.3 м/с2 %
    12:00Ясно и безоблачно+23°C44 %745 мм1.2 м/с2 %
    15:00Практически безоблачно+25°C41 %745 мм0.4 м/с2 %
    18:00Практически безоблачно+25°C40 %744 мм0.5 м/с2 %
    21:00Ясно и безоблачно+19°C60 %744 мм0.2 м/с2 %
  • 25июля
    Четверг
    +12°
    +27°
    Практически безоблачно
    ВремяПогодаТемператураВлажностьДавлениеВетер, м/сВероятность осадков
    00:00Ясно и безоблачно+15°C74 %743 мм0.2 м/с2 %
    03:00Ясно и безоблачно+13°C81 %743 мм0.2 м/с2 %
    06:00Практически безоблачно+14°C81 %743 мм0.3 м/с2 %
    09:00Практически безоблачно+21°C65 %743 мм0.7 м/с2 %
    12:00Небольшая облачность+25°C49 %742 мм1.6 м/с7 %
    15:00Практически безоблачно+26°C48 %742 мм1.7 м/с21 %
    18:00Небольшая облачность и лёгкий дождик+24°C68 %742 мм1.0 м/с47 %
    21:00Ясно и безоблачно+19°C84 %742 мм0.9 м/с8 %
  • 26июля
    Пятница
    +11°
    +26°
    Ясно и безоблачно
    ВремяПогодаТемператураВлажностьДавлениеВетер, м/сВероятность осадков
    00:00Ясно и безоблачно+15°C94 %742 мм0.4 м/с1 %
    03:00Ясно и безоблачно+13°C97 %742 мм0.0 м/с3 %
    06:00Ясно и безоблачно+14°C97 %743 мм0.0 м/с3 %
    09:00Ясно и безоблачно+20°C73 %744 мм0.6 м/с3 %
    12:00Ясно и безоблачно+23°C51 %744 мм1.1 м/с11 %
    15:00Ясно и безоблачно+25°C40 %744 мм0.2 м/с7 %
    18:00Практически безоблачно+25°C38 %744 мм0.3 м/с2 %
    21:00Ясно и безоблачно+19°C55 %745 мм0.1 м/с2 %
  • 27июля
    Суббота
    +14°
    +26°
    Облачно с прояснениями
    ВремяПогодаТемператураВлажностьДавлениеВетер, м/сВероятность осадков
    00:00Ясно и безоблачно+14°C61 %746 мм0.2 м/с2 %
    03:00Ясно и безоблачно+13°C77 %746 мм0.0 м/с2 %
    06:00Ясно и безоблачно+13°C78 %746 мм0.0 м/с2 %
    09:00Ясно и безоблачно+21°C56 %747 мм0.6 м/с2 %
    12:00Практически безоблачно+24°C51 %747 мм1.4 м/с12 %
    15:00Облачно с прояснениями+25°C45 %746 мм1.8 м/с22 %
    18:00Облачно с прояснениями+25°C51 %746 мм2.1 м/с42 %
    21:00Практически безоблачно+20°C68 %746 мм0.8 м/с20 %
  • 28июля
    Воскресенье
    +16°
    +27°
    Облачно с прояснениями
    ВремяПогодаТемператураВлажностьДавлениеВетер, м/сВероятность осадков
    00:00Практически безоблачно+16°C73 %746 мм0.7 м/с2 %
    03:00Облачно с прояснениями+15°C84 %746 мм0.5 м/с2 %
    06:00Облачно с прояснениями+15°C88 %746 мм0.4 м/с2 %
    09:00Ясно и безоблачно+21°C73 %746 мм1.0 м/с2 %
    12:00Практически безоблачно+25°C54 %746 мм2.1 м/с14 %
    15:00Облачно с прояснениями+26°C49 %745 мм2.1 м/с23 %
    18:00Облачно с прояснениями+26°C50 %745 мм2.4 м/с27 %
    21:00Облачно с прояснениями+21°C73 %745 мм0.6 м/с27 %
Мы используем cookies
Соглашаюсь